Time;durP1;ratioP1;P1;durP2;ratioP2;P2;SDS_P1;SDS_P2;PMS_P1;PMS_P2;Temp;Humidity;BMP_temperature;BMP_pressure;BME280_temperature;BME280_humidity;BME280_pressure;Samples;Min_cycle;Max_cycle;Signal;HPM_P1;HPM_P2
2022/09/21 00:00:24;;;;;;;8.73;3.30;;;;;;;8.98;100.00;102441.91;20815169;28;20053;-63
2022/09/21 00:10:49;;;;;;;8.73;3.83;;;;;;;8.74;100.00;102443.53;20814766;28;20490;-64
2022/09/21 00:21:13;;;;;;;11.10;4.20;;;;;;;8.85;100.00;102436.28;20816236;28;20053;-64
2022/09/21 00:31:34;;;;;;;11.20;3.92;;;;;;;8.56;100.00;102442.41;20810452;28;20049;-63
2022/09/21 00:41:56;;;;;;;7.32;3.30;;;;;;;8.51;100.00;102433.91;20807460;28;20041;-64
2022/09/21 00:52:19;;;;;;;8.80;3.50;;;;;;;8.45;100.00;102444.47;20811510;28;20457;-64
2022/09/21 01:02:41;;;;;;;8.25;3.00;;;;;;;8.42;100.00;102442.81;20809035;28;20103;-64
2022/09/21 01:13:15;;;;;;;6.43;3.38;;;;;;;8.32;100.00;102453.53;20809844;28;20435;-63
2022/09/21 01:23:59;;;;;;;7.55;2.85;;;;;;;8.33;100.00;102457.84;20806353;28;20042;-64
2022/09/21 01:34:29;;;;;;;13.50;3.33;;;;;;;8.32;100.00;102463.91;20788270;28;20049;-64
2022/09/21 01:44:54;;;;;;;8.50;3.13;;;;;;;8.31;100.00;102457.03;20804522;28;20053;-64
2022/09/21 01:55:22;;;;;;;8.73;3.10;;;;;;;8.27;100.00;102460.63;20801759;28;20045;-64
2022/09/21 02:05:44;;;;;;;4.97;3.20;;;;;;;8.12;100.00;102461.03;20800923;28;20080;-64
2022/09/21 02:16:05;;;;;;;11.98;3.38;;;;;;;8.09;100.00;102461.13;20795776;28;20112;-64
2022/09/21 02:26:44;;;;;;;5.37;3.03;;;;;;;7.98;100.00;102463.16;20822517;28;20045;-65
2022/09/21 02:37:31;;;;;;;4.28;2.78;;;;;;;7.84;100.00;102454.91;20816584;28;20053;-64
2022/09/21 02:47:58;;;;;;;5.07;2.80;;;;;;;7.83;100.00;102459.22;20814391;28;20042;-64
2022/09/21 02:58:23;;;;;;;5.75;2.92;;;;;;;7.71;100.00;102456.13;20798196;28;20425;-64
2022/09/21 03:08:44;;;;;;;13.77;3.08;;;;;;;7.79;100.00;102456.78;20811891;28;20045;-63
2022/09/21 03:19:06;;;;;;;4.70;3.43;;;;;;;7.84;100.00;102460.09;20816288;28;20586;-63
2022/09/21 03:29:27;;;;;;;5.83;3.20;;;;;;;7.68;100.00;102476.97;20817100;28;20045;-63
2022/09/21 03:39:49;;;;;;;5.20;3.07;;;;;;;7.59;100.00;102477.19;20818211;28;20342;-63
2022/09/21 03:50:10;;;;;;;9.23;3.17;;;;;;;7.56;100.00;102473.84;20817989;28;20046;-64
2022/09/21 04:00:33;;;;;;;5.27;2.73;;;;;;;7.49;100.00;102483.53;20803617;28;20046;-64
2022/09/21 04:10:55;;;;;;;5.72;2.92;;;;;;;7.43;100.00;102478.47;20798033;28;20038;-63
2022/09/21 04:21:18;;;;;;;4.28;3.25;;;;;;;7.38;100.00;102480.34;20802617;28;20054;-63
2022/09/21 04:31:40;;;;;;;4.10;3.58;;;;;;;7.32;100.00;102480.50;20816126;28;20049;-64
2022/09/21 04:42:01;;;;;;;5.75;3.10;;;;;;;7.35;100.00;102482.19;20809563;28;20477;-64
2022/09/21 04:52:23;;;;;;;9.30;3.00;;;;;;;7.40;100.00;102483.78;20811946;28;20635;-63
2022/09/21 05:02:44;;;;;;;3.77;2.60;;;;;;;7.27;100.00;102492.75;20810584;28;20111;-64
2022/09/21 05:13:06;;;;;;;3.47;2.40;;;;;;;7.34;100.00;102496.88;20834329;28;20167;-63
2022/09/21 05:23:29;;;;;;;3.97;2.20;;;;;;;7.31;100.00;102504.72;20810177;28;20049;-63
2022/09/21 05:33:57;;;;;;;2.38;2.10;;;;;;;7.32;100.00;102511.63;20808882;28;20190;-64
2022/09/21 05:44:20;;;;;;;3.55;2.20;;;;;;;7.31;100.00;102525.47;20808922;28;20398;-63
2022/09/21 05:55:00;;;;;;;7.72;2.28;;;;;;;7.25;100.00;102525.66;20808438;28;20053;-63
2022/09/21 06:05:22;;;;;;;5.45;2.45;;;;;;;7.44;100.00;102534.66;20805124;28;20049;-63
2022/09/21 06:15:45;;;;;;;;;;;;;;;7.72;100.00;102543.47;20830923;28;20046;-63
2022/09/21 06:26:06;;;;;;;;;;;;;;;7.73;100.00;102552.94;20813767;28;19921;-62
2022/09/21 06:36:28;;;;;;;2.63;2.33;;;;;;;7.68;100.00;102557.44;20814212;28;21443;-63
2022/09/21 06:46:49;;;;;;;;;;;;;;;8.01;100.00;102551.34;20800507;28;20084;-63
2022/09/21 06:57:11;;;;;;;3.67;2.90;;;;;;;7.98;100.00;102546.25;20796166;28;20165;-63
2022/09/21 07:07:33;;;;;;;10.90;2.80;;;;;;;8.27;100.00;102554.16;20799383;28;20057;-63
2022/09/21 07:17:54;;;;;;;;;;;;;;;8.61;100.00;102555.75;20799658;28;20042;-62
2022/09/21 07:28:26;;;;;;;6.07;3.40;;;;;;;8.79;100.00;102552.63;20814715;28;19927;-62
2022/09/21 07:38:47;;;;;;;5.47;3.27;;;;;;;9.09;100.00;102562.94;20821080;28;20095;-62
2022/09/21 07:49:10;;;;;;;6.00;2.80;;;;;;;9.31;100.00;102565.72;20805419;28;20054;-62
2022/09/21 07:59:32;;;;;;;5.82;3.20;;;;;;;9.63;100.00;102563.75;20808100;28;20502;-62
2022/09/21 08:09:53;;;;;;;7.30;2.80;;;;;;;9.91;100.00;102561.94;20812984;28;20108;-62
2022/09/21 08:20:15;;;;;;;7.67;2.93;;;;;;;10.62;100.00;102571.56;20816516;28;20478;-62
2022/09/21 08:30:36;;;;;;;6.90;3.00;;;;;;;10.71;100.00;102577.28;20811391;28;20053;-63
2022/09/21 08:41:00;;;;;;;6.75;2.72;;;;;;;11.07;100.00;102578.47;20810228;28;20045;-63
2022/09/21 08:51:30;;;;;;;6.22;2.30;;;;;;;11.15;100.00;102568.59;20802207;28;20619;-64
2022/09/21 09:02:23;;;;;;;13.35;2.53;;;;;;;11.37;100.00;102579.88;20813079;28;20092;-64
2022/09/21 09:13:40;;;;;;;7.95;2.50;;;;;;;11.85;100.00;102584.03;20817840;28;20124;-64
2022/09/21 09:24:10;;;;;;;5.40;1.83;;;;;;;12.01;100.00;102595.50;20797397;28;20508;-62
2022/09/21 09:34:36;;;;;;;6.40;1.23;;;;;;;12.22;100.00;102585.91;20795186;28;20093;-62
2022/09/21 09:45:01;;;;;;;4.72;1.02;;;;;;;12.46;100.00;102582.22;20807393;28;20441;-63
2022/09/21 09:55:29;;;;;;;8.23;1.20;;;;;;;12.60;97.26;102578.06;20800042;28;20045;-63
2022/09/21 10:05:52;;;;;;;3.85;0.82;;;;;;;12.76;96.86;102586.91;20807536;28;20041;-62
2022/09/21 10:16:16;;;;;;;6.57;1.23;;;;;;;13.26;92.96;102578.44;20805676;28;20100;-63
2022/09/21 10:27:11;;;;;;;5.85;1.10;;;;;;;13.20;92.13;102589.22;20799299;28;20061;-63
2022/09/21 10:37:36;;;;;;;8.13;0.77;;;;;;;13.70;86.97;102582.38;20807558;28;20398;-63
2022/09/21 10:48:17;;;;;;;5.90;1.10;;;;;;;14.00;87.51;102578.22;20811748;28;20041;-62
2022/09/21 10:58:38;;;;;;;3.97;0.70;;;;;;;13.93;84.57;102567.19;20810345;28;20053;-64
2022/09/21 11:09:07;;;;;;;3.90;1.33;;;;;;;14.23;81.25;102562.19;20818754;28;20099;-63
2022/09/21 11:19:37;;;;;;;6.68;0.80;;;;;;;13.70;82.72;102559.66;20804209;28;20383;-63
2022/09/21 11:30:08;;;;;;;2.75;0.65;;;;;;;14.14;74.51;102560.03;20815724;28;20557;-63
2022/09/21 11:40:53;;;;;;;6.63;0.90;;;;;;;14.46;77.53;102547.78;20813922;28;20462;-64
2022/09/21 11:51:38;;;;;;;3.38;0.80;;;;;;;14.56;75.25;102550.75;20812295;28;20057;-63
2022/09/21 12:02:21;;;;;;;9.35;1.13;;;;;;;14.19;78.48;102543.13;20809808;28;20478;-62
2022/09/21 12:12:48;;;;;;;7.72;1.02;;;;;;;14.03;76.29;102536.97;20792555;28;20050;-63
2022/09/21 12:23:16;;;;;;;6.18;1.27;;;;;;;14.71;73.29;102532.38;20812854;28;20056;-62
2022/09/21 12:33:45;;;;;;;5.45;0.95;;;;;;;14.69;78.16;102529.03;20808598;28;20042;-64
2022/09/21 12:44:24;;;;;;;5.43;1.00;;;;;;;15.51;70.07;102515.59;20817661;28;20037;-65
2022/09/21 12:54:58;;;;;;;3.50;1.02;;;;;;;15.41;66.10;102516.19;20805355;28;20045;-65
2022/09/21 13:05:25;;;;;;;3.50;0.70;;;;;;;15.91;65.37;102504.41;20806163;28;20041;-65
2022/09/21 13:15:48;;;;;;;5.70;1.02;;;;;;;15.39;73.18;102497.91;20800029;28;20466;-64
2022/09/21 13:26:12;;;;;;;8.35;1.00;;;;;;;15.70;63.84;102500.44;20821417;28;20045;-65
2022/09/21 13:36:35;;;;;;;4.10;0.68;;;;;;;15.72;64.57;102488.00;20800707;28;20531;-63
2022/09/21 13:46:57;;;;;;;4.53;0.70;;;;;;;15.94;64.81;102484.00;20804215;28;20627;-63
2022/09/21 13:57:30;;;;;;;6.95;1.10;;;;;;;15.79;65.38;102471.78;20786182;28;20045;-64
2022/09/21 14:08:00;;;;;;;4.10;0.90;;;;;;;15.71;65.85;102484.56;20803467;28;20079;-63
2022/09/21 14:18:36;;;;;;;7.70;1.15;;;;;;;15.69;67.97;102467.19;20833752;28;20050;-63
2022/09/21 14:29:07;;;;;;;7.13;0.90;;;;;;;16.10;63.74;102457.63;20820314;28;20474;-63
2022/09/21 14:39:32;;;;;;;6.17;0.70;;;;;;;15.77;63.64;102455.28;20820695;28;20080;-63
2022/09/21 14:50:12;;;;;;;5.10;1.02;;;;;;;15.62;61.93;102450.06;20819555;28;20457;-62
2022/09/21 15:00:42;;;;;;;4.03;0.88;;;;;;;15.50;64.13;102441.13;20814428;28;20049;-62
2022/09/21 15:11:21;;;;;;;6.18;1.00;;;;;;;15.59;63.43;102434.47;20807737;28;20058;-61
2022/09/21 15:21:51;;;;;;;3.15;0.85;;;;;;;16.08;62.56;102433.19;20812752;28;20041;-61
2022/09/21 15:32:33;;;;;;;3.67;0.70;;;;;;;16.61;63.16;102423.66;20809905;28;20061;-61
2022/09/21 15:43:00;;;;;;;5.00;0.70;;;;;;;16.69;60.74;102416.94;20806255;28;20045;-61
2022/09/21 15:53:26;;;;;;;3.72;0.60;;;;;;;16.78;65.01;102421.63;20816872;28;20041;-60
2022/09/21 16:04:01;;;;;;;5.50;0.90;;;;;;;17.43;59.59;102412.88;20812760;28;20037;-61
2022/09/21 16:25:36;;;;;;;6.23;0.60;;;;;;;15.65;67.80;102410.44;20808076;28;20037;-63
2022/09/21 16:35:57;;;;;;;2.92;0.80;;;;;;;15.47;69.98;102407.16;20802517;28;20045;-62
2022/09/21 16:46:19;;;;;;;3.35;0.60;;;;;;;15.11;71.27;102416.31;20809583;28;20065;-61
2022/09/21 16:56:40;;;;;;;3.10;0.93;;;;;;;14.89;76.10;102415.84;20791845;28;20044;-62
2022/09/21 17:07:05;;;;;;;3.25;0.82;;;;;;;14.56;78.41;102416.91;20794568;28;20131;-61
2022/09/21 17:17:28;;;;;;;7.47;1.33;;;;;;;14.19;81.49;102408.50;20802973;28;20437;-61
2022/09/21 17:27:51;;;;;;;6.95;2.00;;;;;;;13.87;87.83;102406.72;20803919;28;20175;-61
2022/09/21 17:38:13;;;;;;;10.75;1.67;;;;;;;13.67;86.86;102407.78;20801338;28;20045;-61
2022/09/21 17:48:38;;;;;;;10.00;1.30;;;;;;;13.47;85.84;102414.97;20802142;28;20486;-62
2022/09/21 17:59:01;;;;;;;4.85;1.48;;;;;;;13.19;86.73;102408.56;20802365;28;20501;-61
2022/09/21 18:09:23;;;;;;;21.23;2.03;;;;;;;13.04;90.91;102407.59;20805521;28;20456;-62
2022/09/21 18:20:19;;;;;;;8.18;2.60;;;;;;;13.09;89.16;102415.22;20794397;28;20544;-65
2022/09/21 18:30:49;;;;;;;13.45;3.00;;;;;;;12.81;92.55;102418.28;20804110;28;20041;-64
2022/09/21 18:41:32;;;;;;;12.25;2.88;;;;;;;12.56;94.58;102412.53;20802404;28;20049;-65
2022/09/21 18:52:26;;;;;;;7.20;2.83;;;;;;;12.28;94.91;102415.66;20794426;28;20049;-65
2022/09/21 19:02:49;;;;;;;8.82;3.00;;;;;;;12.17;96.44;102412.72;20809616;28;20552;-65
2022/09/21 19:13:40;;;;;;;13.32;3.63;;;;;;;12.01;96.99;102415.16;20801898;28;20413;-65
2022/09/21 19:24:20;;;;;;;25.70;5.10;;;;;;;11.93;98.63;102419.06;20804671;28;20119;-65
2022/09/21 19:34:42;;;;;;;13.10;4.18;;;;;;;11.64;100.00;102419.50;20815187;28;20607;-64
2022/09/21 19:45:21;;;;;;;17.38;4.63;;;;;;;11.67;100.00;102424.56;20797545;28;20042;-65
2022/09/21 20:06:33;;;;;;;13.13;5.53;;;;;;;11.34;100.00;102427.75;20789655;28;20486;-65
2022/09/21 20:16:59;;;;;;;9.85;5.07;;;;;;;11.27;100.00;102424.53;20795094;28;20115;-64
2022/09/21 20:27:31;;;;;;;10.38;5.28;;;;;;;11.10;100.00;102426.16;20789981;28;20111;-65
2022/09/21 20:37:53;;;;;;;9.68;4.55;;;;;;;10.90;100.00;102423.50;20826877;28;20486;-65
2022/09/21 20:48:21;;;;;;;9.63;4.75;;;;;;;10.88;100.00;102428.78;20786701;28;20087;-65
2022/09/21 20:58:43;;;;;;;12.23;5.40;;;;;;;10.78;100.00;102431.81;20789728;28;20080;-64
2022/09/21 21:09:04;;;;;;;13.97;6.20;;;;;;;10.71;100.00;102433.84;20789006;28;20108;-63
2022/09/21 21:19:26;;;;;;;16.83;7.43;;;;;;;10.50;100.00;102430.34;20785769;28;20288;-63
2022/09/21 21:29:50;;;;;;;17.85;6.93;;;;;;;10.33;100.00;102430.16;20794013;28;20120;-64
2022/09/21 21:40:11;;;;;;;12.30;6.60;;;;;;;10.37;100.00;102430.00;20829518;28;20099;-64
2022/09/21 21:50:34;;;;;;;13.80;4.97;;;;;;;10.27;100.00;102426.00;20798019;28;20050;-64
2022/09/21 22:01:06;;;;;;;11.13;5.18;;;;;;;10.09;100.00;102424.13;20793166;28;20280;-64
2022/09/21 22:11:29;;;;;;;11.73;5.90;;;;;;;10.09;100.00;102421.50;20803436;28;20037;-64
2022/09/21 22:21:52;;;;;;;13.38;6.25;;;;;;;9.94;100.00;102421.19;20805569;28;20056;-64
2022/09/21 22:32:15;;;;;;;10.38;4.90;;;;;;;9.92;100.00;102422.97;20806204;28;20569;-65
2022/09/21 22:42:36;;;;;;;;;;;;;;;9.76;100.00;102419.22;20823060;28;20045;-65
2022/09/21 22:52:58;;;;;;;13.93;4.60;;;;;;;9.66;100.00;102423.06;20824722;28;19925;-64
2022/09/21 23:03:19;;;;;;;22.10;6.97;;;;;;;9.72;100.00;102420.25;20816282;28;20114;-65
2022/09/21 23:13:41;;;;;;;12.37;7.33;;;;;;;9.54;100.00;102413.09;20821740;28;20421;-65
2022/09/21 23:24:04;;;;;;;14.65;7.03;;;;;;;9.47;100.00;102414.19;20819261;28;20045;-66
2022/09/21 23:34:25;;;;;;;11.45;7.25;;;;;;;9.34;100.00;102410.31;20819267;28;20053;-65
2022/09/21 23:44:47;;;;;;;15.33;8.10;;;;;;;9.29;100.00;102407.03;20815984;28;20198;-64
2022/09/21 23:55:08;;;;;;;15.93;8.60;;;;;;;9.23;100.00;102396.84;20826756;28;20053;-65
